Domov               UVHVVR             MKGP            O straneh              
ZDRAVSTVENO VARSTVO RASTLIN
  MREŽA AGROMET. POSTAJ
 ► PROGNOSTIČNA OBVESTILA
AGROMETEOROLOŠKI PODATKI -
ARSO
OBVLADOVANJE TVEGANJ ZARADI
NEUGODNIH VREMENSKIH RAZMER
  ► NARAVNE NESREČE
  ► SUŠA/MOČA
  ► NAMAKANJE
  ► ŽLED (gozdarstvo)
KARTOGRAFSKI PRIKAZI
SPLETNE POVEZAVE
PROJEKTI IN PUBLIKACIJE

AGROMETEOROLOŠKA MREŽA: VREMENSKE POSTAJE IN FENOLOŠKA OPAZOVANJA

Pregled podatkov za lokacijo Stara Nova vas, meteorološka postaja 512056

Pregled senzorjev na lokaciji

ID Ime Zadnja
vrednost
Datum in čas
zadnje
spremembe
(Lokalni čas)
Tip
senzorja
5042 Sončno sevanje (W/m2) 0.52 W/m2 19.2.2020 01:30 Pyranometer SP-Lite
5039 Omočenost lista (U) 10 U 19.2.2020 01:30 A730WET
5044 Padavine (mm) 0 mm 19.2.2020 01:30 Generic 0.2 mm
5041 Relativna vlaga 2 m (% RH) 96.35 % RH 19.2.2020 01:30 50YA
5043 Temperatura tal 5 cm (°C) 1.66 °C 19.2.2020 01:30 Generic -20 - +40 °C
5040 Temperatura 2 m (°C) 0.03 °C 19.2.2020 01:30 50YA
5045 Smer vetra (°) 330.99 ° 19.2.2020 01:30 566.2S-130
5046 Hitrost vetra (km/h) 0.11 km/h 19.2.2020 01:30 566.2S-176 (200km/h)

Pregled podatkov zadnjih 24 ur

Zap.
št.
Datum in čas
(Centralno
evropski čas)
Stara Nova vas
Sončno
sevanje
Omočenost
lista
Padavine Relativna
vlaga
2
m
Temperatura
tal
5
cm
Temperatura
2
m
Smer
vetra
Hitrost
vetra
1 19.2.2020 02:00
2 19.2.2020 01:30 0.5 10 0 96.4 1.7 0 331 0.1
3 19.2.2020 01:00 0.5 10 0 96.3 1.9 0.8 258.5 1.1
4 19.2.2020 00:30 0.5 10 0 96.3 2.1 1.6 313.7 3.1
5 19.2.2020 00:00 0.5 10 0 96.4 2.1 1.1 211.2 0.1
6 18.2.2020 23:30 0.5 10 0 96.4 2 0.7 347.2 0.1
7 18.2.2020 23:00 0.5 10 0 96.1 2 0.5 238.6 0.1
8 18.2.2020 22:30 0.6 10 0 95.3 2.2 0.5 269.3 1.5
9 18.2.2020 22:00 0.5 10 0 95.7 2.4 1.7 206.2 1.8
10 18.2.2020 21:30 0.5 10 0 95.5 2.5 1.8 116.7 0.1
11 18.2.2020 21:00 0.6 10 0 95.6 2.7 1.6 23.9 0.8
12 18.2.2020 20:30 0.5 10 0 94.4 2.9 1 275 0.1
13 18.2.2020 20:00 0.5 10 0 94.1 3.2 2.2 245.2 0.1
14 18.2.2020 19:30 0.6 10 0 93 3.5 2.6 281.4 0.1
15 18.2.2020 19:00 0.5 10 0 90 3.9 3.2 197.2 0.1
16 18.2.2020 18:30 0.5 10 0 84.5 4.4 5.5 201.5 0.1
17 18.2.2020 18:00 1.2 7 0 79.8 4.8 6.9 90 0.1
18 18.2.2020 17:30 7.5 0 0 73 5.4 8.7 128.4 0.8
19 18.2.2020 17:00 42.9 0 0 68.4 6.1 9.9 205.7 5.2
20 18.2.2020 16:30 88.2 0 0 66.6 6.5 10.6 169.9 7.2
21 18.2.2020 16:00 173.5 0 0 66.1 6.8 11.1 177.9 10.6
22 18.2.2020 15:30 227.8 0 0 67.1 6.9 11.4 167.5 9.8
23 18.2.2020 15:00 115.8 0 0 68.4 6.9 11 195.8 8.1
24 18.2.2020 14:30 127 0 0 67.9 7.1 11.1 142.7 7.3
25 18.2.2020 14:00 220.2 0 0 67.6 7.1 11.3 142.3 6.1
26 18.2.2020 13:30 152 0 0 68.7 7 11.1 143.1 1.9
27 18.2.2020 13:00 149.4 0 0 70.1 7 11 114 1.9
28 18.2.2020 12:30 185.5 0 0 73.9 6.8 10.9 154.6 4.8
29 18.2.2020 12:00 174.4 0 0 74 6.5 10.6 143.4 5.3
30 18.2.2020 11:30 140 0 0 77 6 10.1 135.3 2.2
31 18.2.2020 11:00 126.6 0 0 77.4 5.7 9.9 198.5 4.5
32 18.2.2020 10:30 99.6 0 0 79.9 5.2 9.4 202 4.3
33 18.2.2020 10:00 80.3 1 0 82.4 4.9 8.8 224.1 1.5
34 18.2.2020 09:30 55.9 9 0 88.3 4.5 7.4 99.6 0.1
35 18.2.2020 09:00 35.2 9 0 89 4.2 6.5 267.3 0.3
36 18.2.2020 08:30 21.4 10 0 87.9 4.1 6.1 278.6 0.5
37 18.2.2020 08:00 9.2 2 0 87.4 4 6 268.9 2
38 18.2.2020 07:30 4.7 1 0 85.2 4 6.3 204.8 0.1
39 18.2.2020 07:00 0.8 0 0 84.7 4.1 6.5 36 2.5
40 18.2.2020 06:30 0.5 0 0 82.8 4.1 6.8 33.3 1.8
41 18.2.2020 06:00 0.5 0 0 83.3 4.1 6.6 12.5 4.8
42 18.2.2020 05:30 0.5 0 0 85.1 4.1 6.1 349.8 2.1
43 18.2.2020 05:00 0.5 0 0 85.8 4.1 6 328.4 1.5
44 18.2.2020 04:30 0.5 0 0 85.7 4.1 6.1 66.8 0.3
45 18.2.2020 04:00 0.5 0 0 85.2 4.1 6.2 276.6 3
46 18.2.2020 03:30 0.5 0 0 84.6 4.1 6.4 89.4 0.1
47 18.2.2020 03:00 0.5 0 0 86.3 4.1 6.2 255.9 1.5
48 18.2.2020 02:30 0.5 0 0 87.2 4 5.7 203.4 2.5
© 2011 Ministrstvo za kmetijstvo, gozdarstvo in prehrano. Vse pravice pridržane.